createdAt,value
2023-04-18T00:00:31.201Z,64.50
2023-04-18T00:02:59.188Z,64.70
2023-04-18T00:05:27.224Z,64.40
2023-04-18T00:07:54.201Z,64.90
2023-04-18T00:10:20.994Z,65.50
2023-04-18T00:12:47.766Z,65.70
2023-04-18T00:15:14.495Z,65.60
2023-04-18T00:17:41.178Z,65.50
2023-04-18T00:20:10.557Z,66.30
2023-04-18T00:22:42.229Z,66.70
2023-04-18T00:25:13.095Z,67.00
2023-04-18T00:27:39.928Z,66.80
2023-04-18T00:30:09.322Z,66.50
2023-04-18T00:32:37.950Z,66.20
2023-04-18T00:35:04.935Z,66.10
2023-04-18T00:37:31.666Z,65.90
2023-04-18T00:39:58.413Z,65.80
2023-04-18T00:42:27.677Z,65.80
2023-04-18T00:44:54.340Z,66.10
2023-04-18T00:47:21.052Z,66.20
2023-04-18T00:49:48.106Z,66.40
2023-04-18T00:52:15.607Z,66.30
2023-04-18T00:54:42.958Z,66.90
2023-04-18T00:57:11.298Z,67.20
2023-04-18T00:59:38.540Z,66.90
2023-04-18T01:02:08.042Z,66.50
2023-04-18T01:04:34.994Z,66.30
2023-04-18T01:07:02.143Z,66.00
2023-04-18T01:09:29.170Z,65.80
2023-04-18T01:11:56.003Z,66.50
2023-04-18T01:14:23.278Z,65.50
2023-04-18T01:16:49.989Z,66.10
2023-04-18T01:19:19.158Z,66.20
2023-04-18T01:21:46.168Z,67.40
2023-04-18T01:24:14.982Z,66.80
2023-04-18T01:26:43.946Z,67.30
2023-04-18T01:29:11.144Z,67.60
2023-04-18T01:31:38.433Z,67.60
2023-04-18T01:34:05.855Z,67.40
2023-04-18T01:36:33.001Z,67.40
2023-04-18T01:39:00.385Z,67.30
2023-04-18T01:41:32.294Z,68.10
2023-04-18T01:43:59.349Z,68.90
2023-04-18T01:46:26.591Z,69.30
2023-04-18T01:48:54.000Z,70.70
2023-04-18T01:51:21.431Z,70.00
2023-04-18T01:53:48.427Z,70.00
2023-04-18T01:56:15.207Z,69.70
2023-04-18T01:58:41.895Z,69.40
2023-04-18T02:01:08.862Z,69.40
2023-04-18T02:03:35.995Z,69.50
2023-04-18T02:06:03.628Z,69.80
2023-04-18T02:08:33.114Z,69.50
2023-04-18T02:11:01.538Z,69.40
2023-04-18T02:13:28.786Z,69.50
2023-04-18T02:15:57.585Z,69.70
2023-04-18T02:18:24.891Z,69.60
2023-04-18T02:20:51.878Z,69.90
2023-04-18T02:23:19.207Z,69.70
2023-04-18T02:25:47.591Z,69.60
2023-04-18T02:28:17.369Z,69.70
2023-04-18T02:30:44.087Z,69.70
2023-04-18T02:33:10.777Z,69.60
2023-04-18T02:35:37.559Z,69.50
2023-04-18T02:38:04.212Z,69.60
2023-04-18T02:40:30.888Z,69.50
2023-04-18T02:42:59.835Z,69.30
2023-04-18T02:45:26.510Z,69.30
2023-04-18T02:47:56.389Z,69.30
2023-04-18T02:50:24.480Z,69.20
2023-04-18T02:52:52.888Z,68.80
2023-04-18T02:55:24.291Z,68.80
2023-04-18T02:57:51.922Z,68.40
2023-04-18T03:00:38.968Z,68.60
2023-04-18T03:03:37.849Z,68.50
2023-04-18T03:06:27.488Z,68.20
2023-04-18T03:08:55.491Z,68.20
2023-04-18T03:11:24.131Z,68.00
2023-04-18T03:13:51.040Z,68.20
2023-04-18T03:16:18.361Z,68.50
2023-04-18T03:18:45.342Z,68.20
2023-04-18T03:21:12.234Z,68.50
2023-04-18T03:23:39.321Z,68.40
2023-04-18T03:26:07.472Z,68.40
2023-04-18T03:28:36.333Z,68.20
2023-04-18T03:31:03.780Z,68.00
2023-04-18T03:33:33.438Z,67.80
2023-04-18T03:36:08.096Z,67.60
2023-04-18T03:38:35.146Z,67.30
2023-04-18T03:41:03.185Z,67.50
2023-04-18T03:43:33.838Z,67.50
2023-04-18T03:46:01.373Z,67.40
2023-04-18T03:48:29.109Z,68.00
2023-04-18T03:50:59.479Z,67.90
2023-04-18T03:53:26.166Z,68.00
2023-04-18T03:55:56.150Z,67.90
2023-04-18T03:58:28.200Z,67.50
2023-04-18T04:00:55.205Z,67.50
2023-04-18T04:03:22.110Z,67.40
2023-04-18T04:05:49.317Z,67.10
2023-04-18T04:08:16.408Z,67.30
2023-04-18T04:10:45.011Z,67.20
2023-04-18T04:13:11.939Z,67.30
2023-04-18T04:15:41.330Z,67.20
2023-04-18T04:18:10.272Z,67.20
2023-04-18T04:20:40.594Z,67.20
2023-04-18T04:23:12.545Z,66.90
2023-04-18T04:25:40.078Z,66.90
2023-04-18T04:28:15.908Z,66.90
2023-04-18T04:30:52.170Z,67.10
2023-04-18T04:33:20.767Z,67.10
2023-04-18T04:35:48.153Z,66.90
2023-04-18T04:38:15.364Z,67.10
2023-04-18T04:40:46.671Z,67.10
2023-04-18T04:43:15.351Z,67.00
2023-04-18T04:45:44.660Z,67.00
2023-04-18T04:48:12.218Z,67.10
2023-04-18T04:50:40.176Z,67.10
2023-04-18T04:53:07.019Z,67.20
2023-04-18T04:55:34.149Z,67.60
2023-04-18T04:58:02.853Z,67.80
2023-04-18T05:00:40.562Z,67.90
2023-04-18T05:03:08.341Z,68.00
2023-04-18T05:05:35.755Z,68.20
2023-04-18T05:08:03.481Z,68.20
2023-04-18T05:10:30.577Z,68.70
2023-04-18T05:12:57.259Z,68.90
2023-04-18T05:15:24.828Z,68.80
2023-04-18T05:17:51.899Z,68.70
2023-04-18T05:20:18.598Z,68.50
2023-04-18T05:22:45.442Z,68.50
2023-04-18T05:25:12.626Z,68.40
2023-04-18T05:27:39.481Z,68.80
2023-04-18T05:30:07.203Z,69.00
2023-04-18T05:32:34.383Z,69.30
2023-04-18T05:35:01.043Z,69.10
2023-04-18T05:37:27.744Z,69.10
2023-04-18T05:39:54.418Z,69.40
2023-04-18T05:42:21.280Z,70.10
2023-04-18T05:44:48.115Z,70.20
2023-04-18T05:47:17.250Z,70.00
2023-04-18T05:49:43.873Z,70.10
2023-04-18T05:52:11.315Z,70.60
2023-04-18T05:54:38.061Z,70.50
2023-04-18T05:57:05.016Z,70.60
2023-04-18T05:59:31.818Z,70.50
2023-04-18T06:01:58.740Z,70.40
2023-04-18T06:04:25.646Z,71.00
2023-04-18T06:06:52.399Z,70.90
2023-04-18T06:09:19.382Z,70.60
2023-04-18T06:11:46.023Z,71.50
2023-04-18T06:14:12.874Z,71.20
2023-04-18T06:16:39.687Z,71.70
2023-04-18T06:19:06.595Z,71.80
2023-04-18T06:21:33.355Z,71.50
2023-04-18T06:24:02.633Z,71.50
2023-04-18T06:26:32.128Z,71.50
2023-04-18T06:28:58.854Z,71.30
2023-04-18T06:31:25.507Z,72.40
2023-04-18T06:33:52.313Z,72.80
2023-04-18T06:36:19.175Z,72.60
2023-04-18T06:38:48.187Z,72.50
2023-04-18T06:41:15.507Z,72.60
2023-04-18T06:43:52.035Z,73.00
2023-04-18T06:46:28.725Z,73.20
2023-04-18T06:48:55.602Z,73.50
2023-04-18T06:51:22.244Z,73.40
2023-04-18T06:53:52.420Z,73.30
2023-04-18T06:56:20.390Z,73.10
2023-04-18T06:58:47.608Z,73.10
2023-04-18T07:01:14.414Z,72.80
2023-04-18T07:03:41.257Z,72.90
2023-04-18T07:06:10.466Z,72.80
2023-04-18T07:08:37.458Z,73.00
2023-04-18T07:11:04.252Z,73.00
2023-04-18T07:13:31.019Z,73.40
2023-04-18T07:15:57.772Z,73.90
2023-04-18T07:18:36.583Z,74.10
2023-04-18T07:21:07.196Z,74.10
2023-04-18T07:23:34.072Z,74.40
2023-04-18T07:26:02.559Z,74.10
2023-04-18T07:28:29.698Z,74.40
2023-04-18T07:30:58.807Z,74.40
2023-04-18T07:33:25.502Z,75.10
2023-04-18T07:35:52.996Z,74.70
2023-04-18T07:38:19.946Z,74.30
2023-04-18T07:40:46.813Z,75.40
2023-04-18T07:43:13.449Z,74.70
2023-04-18T07:45:43.393Z,74.70
2023-04-18T07:48:11.092Z,74.70
2023-04-18T07:50:37.865Z,74.50
2023-04-18T07:53:04.540Z,74.60
2023-04-18T07:55:31.792Z,74.60
2023-04-18T07:57:58.558Z,75.00
2023-04-18T08:00:25.182Z,75.10
2023-04-18T08:02:51.963Z,75.20
2023-04-18T08:05:19.821Z,75.10
2023-04-18T08:07:46.610Z,75.10
2023-04-18T08:10:13.287Z,75.30
2023-04-18T08:12:40.593Z,76.00
2023-04-18T08:15:08.087Z,76.20
2023-04-18T08:17:34.755Z,76.20
2023-04-18T08:20:04.857Z,76.20
2023-04-18T08:22:31.917Z,76.30
2023-04-18T08:25:04.922Z,76.30
2023-04-18T08:27:33.177Z,76.60
2023-04-18T08:30:00.459Z,76.70
2023-04-18T08:32:27.269Z,76.80
2023-04-18T08:34:54.295Z,76.90
2023-04-18T08:37:21.139Z,76.50
2023-04-18T08:39:47.766Z,76.30
2023-04-18T08:42:19.358Z,76.60
2023-04-18T08:44:47.243Z,76.90
2023-04-18T08:47:14.720Z,76.80
2023-04-18T08:49:42.691Z,76.80
2023-04-18T08:52:17.024Z,76.70
2023-04-18T08:54:45.356Z,76.60
2023-04-18T08:57:13.680Z,76.60
2023-04-18T08:59:43.115Z,77.10
2023-04-18T09:02:11.622Z,77.20
2023-04-18T09:04:44.921Z,77.50
2023-04-18T09:07:12.523Z,77.90
2023-04-18T09:09:43.495Z,77.90
2023-04-18T09:12:11.299Z,77.90
2023-04-18T09:14:42.708Z,77.60
2023-04-18T09:17:11.719Z,77.00
2023-04-18T09:19:44.859Z,77.00
2023-04-18T09:22:13.316Z,76.90
2023-04-18T09:24:47.258Z,76.70
2023-04-18T09:27:14.250Z,76.60
2023-04-18T09:29:49.995Z,76.60
2023-04-18T09:32:27.534Z,76.70
2023-04-18T09:34:57.995Z,76.80
2023-04-18T09:37:25.459Z,76.90
2023-04-18T09:39:52.624Z,76.80
2023-04-18T09:42:19.575Z,76.80
2023-04-18T09:45:06.060Z,76.90
2023-04-18T09:47:35.001Z,76.90
2023-04-18T09:50:08.906Z,76.80
2023-04-18T09:52:36.951Z,76.90
2023-04-18T09:55:05.342Z,76.60
2023-04-18T09:57:33.029Z,76.40
2023-04-18T10:00:03.137Z,76.20
2023-04-18T10:02:35.846Z,76.20
2023-04-18T10:05:04.824Z,76.30
2023-04-18T10:07:32.381Z,76.40
2023-04-18T10:09:59.332Z,76.30
2023-04-18T10:12:26.318Z,76.30
2023-04-18T10:14:53.462Z,76.20
2023-04-18T10:17:20.182Z,76.00
2023-04-18T10:20:02.793Z,76.10
2023-04-18T10:22:29.552Z,76.30
2023-04-18T10:24:57.054Z,76.10
2023-04-18T10:27:42.667Z,75.80
2023-04-18T10:30:09.785Z,75.60
2023-04-18T10:32:36.462Z,75.50
2023-04-18T10:35:04.662Z,75.50
2023-04-18T10:37:32.354Z,75.20
2023-04-18T10:40:02.633Z,75.10
2023-04-18T10:42:47.861Z,75.10
2023-04-18T10:45:22.101Z,75.20
2023-04-18T10:47:48.919Z,75.80
2023-04-18T10:50:16.337Z,76.40
2023-04-18T10:52:43.378Z,76.60
2023-04-18T10:55:15.916Z,76.70
2023-04-18T10:57:46.755Z,76.40
2023-04-18T11:00:17.370Z,76.30
2023-04-18T11:02:55.936Z,76.10
2023-04-18T11:05:26.752Z,75.90
2023-04-18T11:07:53.875Z,75.60
2023-04-18T11:10:21.930Z,75.50
2023-04-18T11:12:48.894Z,75.40
2023-04-18T11:15:17.887Z,75.30
2023-04-18T11:17:44.830Z,75.40
2023-04-18T11:20:17.646Z,75.70
2023-04-18T11:22:48.453Z,75.50
2023-04-18T11:25:16.581Z,75.40
2023-04-18T11:27:47.527Z,75.30
2023-04-18T11:30:14.873Z,74.60
2023-04-18T11:32:41.741Z,74.90
2023-04-18T11:35:08.973Z,75.10
2023-04-18T11:37:36.115Z,75.00
2023-04-18T11:40:03.288Z,74.20
2023-04-18T11:42:32.365Z,74.10
2023-04-18T11:45:03.855Z,74.40
2023-04-18T11:47:33.912Z,74.70
2023-04-18T11:50:04.119Z,74.70
2023-04-18T11:52:31.704Z,74.80
2023-04-18T11:55:09.682Z,75.60
2023-04-18T11:57:37.032Z,74.50
2023-04-18T12:00:08.803Z,74.30
2023-04-18T12:02:38.275Z,74.20
2023-04-18T12:05:05.624Z,74.50
2023-04-18T12:07:37.205Z,74.30
2023-04-18T12:10:05.149Z,73.70
2023-04-18T12:12:31.841Z,73.60
2023-04-18T12:14:59.286Z,73.40
2023-04-18T12:17:27.147Z,73.20
2023-04-18T12:19:54.078Z,72.20
2023-04-18T12:22:25.373Z,71.90
2023-04-18T12:25:08.543Z,71.70
2023-04-18T12:27:51.284Z,72.10
2023-04-18T12:30:22.000Z,72.10
2023-04-18T12:32:49.881Z,71.60
2023-04-18T12:35:20.617Z,71.50
2023-04-18T12:37:48.060Z,71.00
2023-04-18T12:40:15.442Z,71.10
2023-04-18T12:42:42.476Z,71.60
2023-04-18T12:45:09.844Z,71.40
2023-04-18T12:47:41.061Z,71.30
2023-04-18T12:50:11.236Z,70.70
2023-04-18T12:52:39.091Z,70.90
2023-04-18T12:55:11.111Z,71.00
2023-04-18T12:57:38.160Z,70.90
2023-04-18T13:00:12.638Z,70.40
2023-04-18T13:02:40.684Z,70.30
2023-04-18T13:05:08.476Z,70.30
2023-04-18T13:07:37.628Z,70.30
2023-04-18T13:10:04.962Z,70.00
2023-04-18T13:12:31.665Z,69.30
2023-04-18T13:14:58.404Z,69.20
2023-04-18T13:17:25.854Z,69.50
2023-04-18T13:19:52.654Z,69.60
2023-04-18T13:22:20.453Z,69.50
2023-04-18T13:24:47.689Z,69.40
2023-04-18T13:27:14.938Z,69.00
2023-04-18T13:29:42.262Z,69.00
2023-04-18T13:32:09.506Z,68.40
2023-04-18T13:34:43.644Z,68.80
2023-04-18T13:37:10.590Z,69.10
2023-04-18T13:39:37.403Z,68.00
2023-04-18T13:42:04.940Z,68.20
2023-04-18T13:44:31.613Z,68.20
2023-04-18T13:47:00.971Z,67.80
2023-04-18T13:49:28.023Z,68.00
2023-04-18T13:51:57.480Z,68.40
2023-04-18T13:54:24.638Z,67.40
2023-04-18T13:56:51.284Z,67.10
2023-04-18T13:59:18.265Z,67.00
2023-04-18T14:01:44.930Z,66.90
2023-04-18T14:04:11.668Z,67.20
2023-04-18T14:06:38.728Z,66.60
2023-04-18T14:09:06.797Z,66.20
2023-04-18T14:11:36.493Z,66.80
2023-04-18T14:14:03.222Z,66.00
2023-04-18T14:16:32.595Z,65.90
2023-04-18T14:18:59.813Z,65.30
2023-04-18T14:21:26.932Z,65.20
2023-04-18T14:23:53.759Z,64.90
2023-04-18T14:26:20.865Z,65.30
2023-04-18T14:28:47.728Z,65.00
2023-04-18T14:31:14.608Z,64.10
2023-04-18T14:33:41.843Z,64.10
2023-04-18T14:36:09.569Z,64.10
2023-04-18T14:38:36.306Z,64.50
2023-04-18T14:41:06.217Z,64.70
2023-04-18T14:43:33.061Z,64.70
2023-04-18T14:45:59.939Z,64.90
2023-04-18T14:48:27.600Z,64.40
2023-04-18T14:51:02.366Z,64.50
2023-04-18T14:53:29.061Z,64.60
2023-04-18T14:55:56.265Z,64.80
2023-04-18T14:58:23.062Z,64.70
2023-04-18T15:00:50.618Z,64.80
2023-04-18T15:03:17.474Z,64.70
2023-04-18T15:05:46.490Z,64.80
2023-04-18T15:08:14.398Z,64.80
2023-04-18T15:10:42.472Z,64.80
2023-04-18T15:13:09.669Z,64.80
2023-04-18T15:15:37.883Z,64.90
2023-04-18T15:18:04.807Z,64.70
2023-04-18T15:20:31.566Z,64.80
2023-04-18T15:22:58.434Z,65.10
2023-04-18T15:25:26.247Z,65.10
2023-04-18T15:27:53.086Z,65.20
2023-04-18T15:30:25.898Z,65.20
2023-04-18T15:32:55.908Z,65.20
2023-04-18T15:35:22.719Z,64.90
2023-04-18T15:37:49.391Z,65.00
2023-04-18T15:40:18.507Z,65.10
2023-04-18T15:42:45.875Z,65.10
2023-04-18T15:45:12.841Z,65.10
2023-04-18T15:47:40.686Z,65.10
2023-04-18T15:50:08.598Z,65.00
2023-04-18T15:52:36.389Z,65.00
2023-04-18T15:55:04.927Z,66.00
2023-04-18T15:57:32.119Z,65.10
2023-04-18T15:59:59.468Z,66.00
2023-04-18T16:02:27.158Z,65.00
2023-04-18T16:04:54.033Z,65.00
2023-04-18T16:07:20.981Z,65.00
2023-04-18T16:09:47.648Z,65.00
2023-04-18T16:12:14.715Z,65.10
2023-04-18T16:14:41.593Z,65.00
2023-04-18T16:17:08.720Z,65.00
2023-04-18T16:19:38.312Z,65.00
2023-04-18T16:22:06.988Z,64.80
2023-04-18T16:24:33.662Z,64.80
2023-04-18T16:27:00.896Z,65.00
2023-04-18T16:29:27.646Z,65.00
2023-04-18T16:31:54.516Z,65.00
2023-04-18T16:34:21.718Z,65.00
2023-04-18T16:36:50.810Z,65.80
2023-04-18T16:39:18.625Z,65.10
2023-04-18T16:41:45.290Z,65.00
2023-04-18T16:44:12.249Z,65.00
2023-04-18T16:46:42.352Z,65.00
2023-04-18T16:49:09.139Z,64.80
2023-04-18T16:51:37.236Z,64.20
2023-04-18T16:54:04.609Z,63.60
2023-04-18T16:56:31.372Z,62.90
2023-04-18T16:58:58.871Z,62.40
2023-04-18T17:01:25.786Z,62.20
2023-04-18T17:03:52.625Z,62.30
2023-04-18T17:06:19.323Z,62.20
2023-04-18T17:08:46.065Z,62.40
2023-04-18T17:11:12.687Z,61.80
2023-04-18T17:13:39.313Z,61.70
2023-04-18T17:16:06.816Z,61.50
2023-04-18T17:18:33.579Z,61.90
2023-04-18T17:21:00.478Z,61.20
2023-04-18T17:23:27.180Z,61.70
2023-04-18T17:25:54.089Z,61.50
2023-04-18T17:28:23.694Z,61.40
2023-04-18T17:30:50.908Z,61.70
2023-04-18T17:33:17.823Z,61.70
2023-04-18T17:35:44.472Z,61.40
2023-04-18T17:38:11.334Z,61.60
2023-04-18T17:40:39.235Z,61.60
2023-04-18T17:43:06.070Z,61.30
2023-04-18T17:45:32.774Z,61.40
2023-04-18T17:48:02.060Z,61.80
2023-04-18T17:50:28.946Z,62.10
2023-04-18T17:52:55.851Z,62.10
2023-04-18T17:55:22.476Z,62.40
2023-04-18T17:57:49.058Z,62.90
2023-04-18T18:00:15.884Z,63.30
2023-04-18T18:02:43.028Z,63.60
2023-04-18T18:05:13.373Z,63.90
2023-04-18T18:07:42.831Z,64.10
2023-04-18T18:10:10.055Z,64.20
2023-04-18T18:12:37.980Z,64.50
2023-04-18T18:15:05.320Z,64.80
2023-04-18T18:17:32.043Z,64.90
2023-04-18T18:19:58.767Z,64.90
2023-04-18T18:22:26.278Z,64.90
2023-04-18T18:24:53.097Z,64.80
2023-04-18T18:27:20.257Z,64.80
2023-04-18T18:29:48.265Z,65.00
2023-04-18T18:32:14.949Z,65.10
2023-04-18T18:34:41.586Z,65.20
2023-04-18T18:37:08.488Z,65.30
2023-04-18T18:39:36.526Z,65.00
2023-04-18T18:42:03.203Z,65.00
2023-04-18T18:44:30.459Z,64.90
2023-04-18T18:46:58.637Z,65.20
2023-04-18T18:49:26.355Z,66.30
2023-04-18T18:51:53.210Z,65.70
2023-04-18T18:54:19.898Z,66.00
2023-04-18T18:56:46.629Z,66.30
2023-04-18T18:59:13.557Z,66.90
2023-04-18T19:01:40.877Z,67.00
2023-04-18T19:04:08.036Z,67.80
2023-04-18T19:06:35.211Z,67.90
2023-04-18T19:09:01.876Z,68.00
2023-04-18T19:11:29.188Z,68.20
2023-04-18T19:13:55.893Z,68.10
2023-04-18T19:16:22.762Z,68.00
2023-04-18T19:18:50.435Z,68.20
2023-04-18T19:21:17.400Z,68.40
2023-04-18T19:23:44.043Z,68.90
2023-04-18T19:26:10.766Z,69.10
2023-04-18T19:28:37.695Z,69.00
2023-04-18T19:31:04.905Z,68.80
2023-04-18T19:33:31.632Z,68.80
2023-04-18T19:35:58.643Z,68.70
2023-04-18T19:38:26.270Z,68.70
2023-04-18T19:40:52.878Z,68.80
2023-04-18T19:43:19.583Z,68.70
2023-04-18T19:45:46.370Z,68.70
2023-04-18T19:48:13.471Z,68.40
2023-04-18T19:50:40.644Z,68.50
2023-04-18T19:53:07.485Z,68.60
2023-04-18T19:55:36.675Z,68.70
2023-04-18T19:58:05.080Z,68.50
2023-04-18T20:00:31.695Z,68.50
2023-04-18T20:02:58.829Z,68.70
2023-04-18T20:05:25.877Z,68.70
2023-04-18T20:07:52.579Z,68.90
2023-04-18T20:10:21.188Z,69.30
2023-04-18T20:12:49.497Z,69.30
2023-04-18T20:15:17.135Z,69.40
2023-04-18T20:17:43.952Z,69.20
2023-04-18T20:20:11.457Z,69.50
2023-04-18T20:22:40.317Z,69.20
2023-04-18T20:25:07.159Z,69.30
2023-04-18T20:27:34.008Z,69.30
2023-04-18T20:30:00.762Z,69.30
2023-04-18T20:32:27.975Z,69.30
2023-04-18T20:34:54.796Z,69.30
2023-04-18T20:37:21.808Z,69.10
2023-04-18T20:39:48.424Z,69.00
2023-04-18T20:42:15.636Z,69.00
2023-04-18T20:44:44.044Z,69.00
2023-04-18T20:47:11.701Z,69.10
2023-04-18T20:49:39.471Z,69.50
2023-04-18T20:52:08.247Z,69.40
2023-04-18T20:54:35.329Z,69.70
2023-04-18T20:57:02.770Z,69.60
2023-04-18T20:59:29.677Z,69.60
2023-04-18T21:01:56.456Z,69.40
2023-04-18T21:04:25.085Z,69.60
2023-04-18T21:06:52.246Z,69.50
2023-04-18T21:09:19.133Z,69.80
2023-04-18T21:11:46.008Z,69.80
2023-04-18T21:14:13.147Z,70.10
2023-04-18T21:16:40.212Z,70.10
2023-04-18T21:19:07.070Z,70.10
2023-04-18T21:21:34.269Z,70.10
2023-04-18T21:24:01.990Z,70.30
2023-04-18T21:26:28.652Z,70.30
2023-04-18T21:28:56.640Z,69.80
2023-04-18T21:31:23.790Z,69.60
2023-04-18T21:33:54.615Z,70.20
2023-04-18T21:36:21.422Z,70.10
2023-04-18T21:38:48.610Z,70.10
2023-04-18T21:41:16.760Z,69.80
2023-04-18T21:43:43.723Z,69.30
2023-04-18T21:46:16.271Z,69.60
2023-04-18T21:48:44.429Z,70.00
2023-04-18T21:51:11.504Z,69.70
2023-04-18T21:53:39.639Z,69.80
2023-04-18T21:56:07.179Z,69.80
2023-04-18T21:58:34.360Z,70.00
2023-04-18T22:01:03.759Z,70.10
2023-04-18T22:03:31.406Z,70.00
2023-04-18T22:05:58.610Z,70.40
2023-04-18T22:08:28.376Z,70.40
2023-04-18T22:10:55.937Z,71.10
2023-04-18T22:13:22.587Z,71.50
2023-04-18T22:15:49.940Z,71.40
2023-04-18T22:18:17.925Z,71.20
2023-04-18T22:20:45.342Z,71.10
2023-04-18T22:23:12.111Z,71.00
2023-04-18T22:25:39.045Z,70.90
2023-04-18T22:28:06.048Z,70.80
2023-04-18T22:30:32.759Z,70.90
2023-04-18T22:32:59.532Z,71.10
2023-04-18T22:35:26.679Z,71.10
2023-04-18T22:37:53.432Z,71.40
2023-04-18T22:40:20.368Z,71.20
2023-04-18T22:42:47.134Z,71.50
2023-04-18T22:45:14.507Z,71.70
2023-04-18T22:47:41.321Z,71.70
2023-04-18T22:50:08.335Z,71.90
2023-04-18T22:52:35.193Z,72.10
2023-04-18T22:55:02.506Z,72.30
2023-04-18T22:57:29.677Z,72.20
2023-04-18T22:59:56.452Z,72.20
2023-04-18T23:02:23.228Z,72.20
2023-04-18T23:04:50.499Z,72.30
2023-04-18T23:07:17.318Z,72.20
2023-04-18T23:09:44.065Z,71.90
2023-04-18T23:12:13.227Z,71.90
2023-04-18T23:14:41.783Z,71.70
2023-04-18T23:17:10.711Z,71.50
2023-04-18T23:19:37.472Z,71.10
2023-04-18T23:22:04.292Z,71.20
2023-04-18T23:24:31.106Z,71.40
2023-04-18T23:26:58.182Z,71.20
2023-04-18T23:29:25.081Z,71.30
2023-04-18T23:31:53.272Z,71.20
2023-04-18T23:34:20.100Z,71.20
2023-04-18T23:36:47.238Z,71.20
2023-04-18T23:39:13.915Z,71.20
2023-04-18T23:41:40.850Z,71.30
2023-04-18T23:44:07.601Z,71.00
2023-04-18T23:46:35.784Z,71.30
2023-04-18T23:49:03.399Z,71.40
2023-04-18T23:51:30.952Z,71.20
2023-04-18T23:53:57.636Z,71.20
2023-04-18T23:56:24.505Z,70.80
2023-04-18T23:58:51.312Z,70.80
